Time;durP1;ratioP1;P1;durP2;ratioP2;P2;SDS_P1;SDS_P2;PMS_P1;PMS_P2;Temp;Humidity;BMP_temperature;BMP_pressure;BME280_temperature;BME280_humidity;BME280_pressure;Samples;Min_cycle;Max_cycle;Signal;HPM_P1;HPM_P2
2022/06/05 00:00:07;;;;;;;9.20;5.80;;;17.20;99.90;;;;;;4590105;19;20018;-26
2022/06/05 00:02:02;;;;;;;7.10;5.55;;;17.20;99.90;;;;;;4589422;19;20070;-27
2022/06/05 00:03:52;;;;;;;7.55;5.53;;;17.20;99.90;;;;;;4590438;19;20505;-26
2022/06/05 00:05:32;;;;;;;7.82;5.80;;;17.20;99.90;;;;;;4590320;19;20030;-26
2022/06/05 00:07:13;;;;;;;6.72;5.75;;;17.10;99.90;;;;;;4588727;19;20015;-26
2022/06/05 00:09:09;;;;;;;6.75;5.88;;;17.10;99.90;;;;;;4588737;19;20074;-27
2022/06/05 00:11:01;;;;;;;7.60;5.95;;;17.10;99.90;;;;;;4590088;19;20013;-24
2022/06/05 00:12:38;;;;;;;10.20;6.30;;;17.10;99.90;;;;;;4589040;19;20011;-25
2022/06/05 00:14:10;;;;;;;8.52;6.70;;;17.10;99.90;;;;;;4588730;19;20566;-29
2022/06/05 00:15:41;;;;;;;7.65;6.10;;;17.10;99.90;;;;;;4589442;19;20044;-27
2022/06/05 00:17:15;;;;;;;6.43;5.72;;;17.10;99.90;;;;;;4589015;19;20019;-25
2022/06/05 00:18:46;;;;;;;7.22;6.28;;;17.10;99.90;;;;;;4589622;19;20015;-25
2022/06/05 00:20:18;;;;;;;8.35;6.35;;;17.10;99.90;;;;;;4589278;19;20070;-27
2022/06/05 00:21:49;;;;;;;8.40;6.10;;;17.10;99.90;;;;;;4589510;19;20456;-25
2022/06/05 00:23:20;;;;;;;10.23;7.18;;;17.00;99.90;;;;;;4589316;19;20477;-26
2022/06/05 00:24:51;;;;;;;7.53;6.45;;;17.10;99.90;;;;;;4588681;19;20044;-29
2022/06/05 00:26:27;;;;;;;8.18;6.25;;;17.00;99.90;;;;;;4589307;19;20031;-25
2022/06/05 00:28:06;;;;;;;6.75;6.05;;;17.10;99.90;;;;;;4588340;19;20564;-25
2022/06/05 00:30:09;;;;;;;13.00;6.63;;;17.00;99.90;;;;;;4589133;19;20010;-26
2022/06/05 00:32:09;;;;;;;8.02;6.38;;;17.00;99.90;;;;;;4588701;19;20086;-25
2022/06/05 00:33:43;;;;;;;8.00;6.85;;;17.00;99.90;;;;;;4589501;19;20196;-24
2022/06/05 00:35:16;;;;;;;9.25;6.85;;;17.00;99.90;;;;;;4589471;19;20079;-26
2022/06/05 00:37:12;;;;;;;8.80;6.55;;;17.00;99.90;;;;;;4588548;19;20442;-25
2022/06/05 00:39:21;;;;;;;16.52;6.97;;;17.00;99.90;;;;;;4587526;19;20528;-25
2022/06/05 00:40:52;;;;;;;10.38;6.63;;;17.00;99.90;;;;;;4587340;19;20073;-28
2022/06/05 00:42:23;;;;;;;;;;;17.00;99.90;;;;;;4588411;19;20361;-25
2022/06/05 00:43:54;;;;;;;;;;;17.00;99.90;;;;;;4588222;19;19919;-24
2022/06/05 00:45:26;;;;;;;;;;;17.00;99.90;;;;;;4592638;19;20234;-25
2022/06/05 00:46:57;;;;;;;;;;;17.00;99.90;;;;;;4592804;19;20298;-25
2022/06/05 00:48:28;;;;;;;;;;;17.00;99.90;;;;;;4592781;19;20028;-24
2022/06/05 00:50:10;;;;;;;;;;;17.00;99.90;;;;;;4592856;19;19975;-28
2022/06/05 00:51:41;;;;;;;;;;;17.00;99.90;;;;;;4593201;19;19933;-26
2022/06/05 00:53:12;;;;;;;;;;;17.00;99.90;;;;;;4592861;19;19926;-26
2022/06/05 00:54:43;;;;;;;;;;;17.00;99.90;;;;;;4593312;19;20003;-24
2022/06/05 00:56:14;;;;;;;;;;;17.00;99.90;;;;;;4592670;19;19940;-25
2022/06/05 00:57:44;;;;;;;;;;;17.00;99.90;;;;;;4593150;19;19934;-27
2022/06/05 00:59:15;;;;;;;;;;;17.00;99.90;;;;;;4592456;19;19933;-26
2022/06/05 01:00:48;;;;;;;;;;;17.00;99.90;;;;;;4592454;19;19919;-26
2022/06/05 01:02:19;;;;;;;;;;;17.00;99.90;;;;;;4592606;19;20398;-25
2022/06/05 01:03:50;;;;;;;;;;;17.00;99.90;;;;;;4592991;19;20005;-28
2022/06/05 01:05:21;;;;;;;;;;;17.00;99.90;;;;;;4592824;19;19922;-28
2022/06/05 01:06:52;;;;;;;;;;;16.90;99.90;;;;;;4591661;19;19949;-24
2022/06/05 01:08:23;;;;;;;;;;;16.90;99.90;;;;;;4591724;19;19910;-27
2022/06/05 01:09:54;;;;;;;;;;;16.90;99.90;;;;;;4592525;19;19919;-26
2022/06/05 01:11:54;;;;;;;;;;;16.90;99.90;;;;;;4592562;19;20275;-24
2022/06/05 01:13:28;;;;;;;;;;;16.90;99.90;;;;;;4592622;19;19914;-25
2022/06/05 01:15:02;;;;;;;;;;;16.90;99.90;;;;;;4592281;19;19914;-24
2022/06/05 01:16:41;;;;;;;;;;;16.90;99.90;;;;;;4592564;19;19919;-25
2022/06/05 01:18:19;;;;;;;;;;;16.90;99.90;;;;;;4593230;19;19911;-25
2022/06/05 01:20:01;;;;;;;;;;;16.90;99.90;;;;;;4595219;19;19911;-28
2022/06/05 01:21:42;;;;;;;;;;;16.90;99.90;;;;;;4594025;19;19976;-24
2022/06/05 01:23:16;;;;;;;;;;;16.90;99.90;;;;;;4593555;19;20342;-26
2022/06/05 01:24:59;;;;;;;;;;;16.90;99.90;;;;;;4594295;19;19990;-25
2022/06/05 01:26:32;;;;;;;;;;;16.90;99.90;;;;;;4593653;19;20123;-25
2022/06/05 01:28:16;;;;;;;;;;;16.90;99.90;;;;;;4593059;19;20269;-24
2022/06/05 01:29:58;;;;;;;;;;;16.90;99.90;;;;;;4594340;19;20341;-26
2022/06/05 01:31:40;;;;;;;;;;;16.90;99.90;;;;;;4593082;19;19911;-27
2022/06/05 01:33:29;;;;;;;;;;;16.90;99.90;;;;;;4593411;19;19977;-25
2022/06/05 01:35:03;;;;;;;;;;;16.90;99.90;;;;;;4593359;19;19947;-26
2022/06/05 01:36:42;;;;;;;;;;;16.90;99.90;;;;;;4593168;19;19911;-25
2022/06/05 01:38:15;;;;;;;;;;;16.90;99.90;;;;;;4593761;19;19978;-25
2022/06/05 01:40:05;;;;;;;;;;;16.90;99.90;;;;;;4592875;19;19919;-27
2022/06/05 01:41:44;;;;;;;;;;;16.90;99.90;;;;;;4593094;19;19919;-25
2022/06/05 01:43:19;;;;;;;;;;;16.90;99.90;;;;;;4592898;19;20342;-26
2022/06/05 01:44:51;;;;;;;;;;;16.90;99.90;;;;;;4593442;19;20592;-26
2022/06/05 01:46:48;;;;;;;;;;;16.90;99.90;;;;;;4593209;19;19924;-27
2022/06/05 01:48:27;;;;;;;;;;;16.90;99.90;;;;;;4592964;19;19919;-27
2022/06/05 01:50:04;;;;;;;;;;;16.90;99.90;;;;;;4594444;19;19926;-25
2022/06/05 01:51:56;;;;;;;;;;;16.90;99.90;;;;;;4593989;19;19919;-25
2022/06/05 01:53:32;;;;;;;;;;;16.90;99.90;;;;;;4593664;19;19974;-26
2022/06/05 01:55:14;;;;;;;;;;;16.90;99.90;;;;;;4592941;19;19922;-29
2022/06/05 01:56:47;;;;;;;;;;;16.90;99.90;;;;;;4591321;19;19919;-26
2022/06/05 01:58:19;;;;;;;;;;;16.90;99.90;;;;;;4593013;19;19955;-26
2022/06/05 01:59:52;;;;;;;;;;;16.80;99.90;;;;;;4592993;19;20034;-25
2022/06/05 02:01:23;;;;;;;;;;;16.90;99.90;;;;;;4592384;19;19914;-25
2022/06/05 02:02:58;;;;;;;;;;;16.90;99.90;;;;;;4593439;19;19915;-28
2022/06/05 02:04:50;;;;;;;;;;;16.80;99.90;;;;;;4592426;19;19919;-24
2022/06/05 02:06:35;;;;;;;;;;;16.90;99.90;;;;;;4592916;19;19918;-25
2022/06/05 02:08:11;;;;;;;;;;;16.90;99.90;;;;;;4592058;19;20268;-27
2022/06/05 02:09:45;;;;;;;;;;;16.90;99.90;;;;;;4592367;19;20334;-25
2022/06/05 02:11:16;;;;;;;;;;;16.80;99.90;;;;;;4592311;19;19915;-25
2022/06/05 02:12:47;;;;;;;;;;;16.90;99.90;;;;;;4593117;19;20267;-26
2022/06/05 02:14:18;;;;;;;;;;;16.80;99.90;;;;;;4592476;19;19918;-24
2022/06/05 02:15:49;;;;;;;;;;;16.80;99.90;;;;;;4592785;19;20056;-25
2022/06/05 02:17:20;;;;;;;;;;;16.80;99.90;;;;;;4592317;19;19949;-29
2022/06/05 02:18:51;;;;;;;;;;;16.80;99.90;;;;;;4592157;19;20275;-24
2022/06/05 02:20:22;;;;;;;;;;;16.80;99.90;;;;;;4593336;19;19918;-24
2022/06/05 02:21:54;;;;;;;;;;;16.80;99.90;;;;;;4593097;19;20326;-25
2022/06/05 02:23:24;;;;;;;;;;;16.80;99.90;;;;;;4592252;19;19923;-24
2022/06/05 02:24:56;;;;;;;;;;;16.80;99.90;;;;;;4592043;19;20377;-24
2022/06/05 02:26:27;;;;;;;;;;;16.80;99.90;;;;;;4593279;19;19939;-25
2022/06/05 02:27:58;;;;;;;;;;;16.80;99.90;;;;;;4592786;19;20249;-26
2022/06/05 02:29:29;;;;;;;;;;;16.80;99.90;;;;;;4592911;19;19919;-25
2022/06/05 02:31:26;;;;;;;;;;;16.80;99.90;;;;;;4592078;19;19915;-30
2022/06/05 02:33:09;;;;;;;;;;;16.80;99.90;;;;;;4590760;19;19943;-27
2022/06/05 02:34:49;;;;;;;;;;;16.80;99.90;;;;;;4591356;19;19915;-26
2022/06/05 02:36:55;;;;;;;;;;;16.80;99.90;;;;;;4590756;19;19932;-25
2022/06/05 02:39:01;;;;;;;;;;;16.80;99.90;;;;;;4590458;19;19985;-26
2022/06/05 02:40:44;;;;;;;;;;;16.80;99.90;;;;;;4590495;19;19974;-27
2022/06/05 02:42:18;;;;;;;;;;;16.80;99.90;;;;;;4590205;19;19944;-29
2022/06/05 02:45:47;;;;;;;;;;;16.80;99.90;;;;;;4590316;19;20307;-25
2022/06/05 02:47:25;;;;;;;;;;;16.80;99.90;;;;;;4590775;19;19982;-26
2022/06/05 02:48:57;;;;;;;;;;;16.70;99.90;;;;;;4589068;19;19915;-26
2022/06/05 02:50:44;;;;;;;;;;;16.80;99.90;;;;;;4590300;19;19915;-25
2022/06/05 02:52:14;;;;;;;;;;;16.80;99.90;;;;;;4590229;19;20365;-28
2022/06/05 02:53:47;;;;;;;;;;;16.80;99.90;;;;;;4589876;19;19970;-25
2022/06/05 02:55:18;;;;;;;;;;;16.70;99.90;;;;;;4590233;19;19941;-25
2022/06/05 02:56:49;;;;;;;;;;;16.70;99.90;;;;;;4590236;19;19923;-29
2022/06/05 02:58:20;;;;;;;;;;;16.70;99.90;;;;;;4590411;19;19915;-25
2022/06/05 02:59:51;;;;;;;;;;;16.70;99.90;;;;;;4590065;19;20309;-26
2022/06/05 03:03:30;;;;;;;;;;;16.70;99.90;;;;;;4590224;19;19919;-26
2022/06/05 03:05:01;;;;;;;;;;;16.80;99.90;;;;;;4589967;19;19918;-25
2022/06/05 03:06:33;;;;;;;;;;;16.70;99.90;;;;;;4589568;19;19929;-30
2022/06/05 03:08:04;;;;;;;;;;;16.80;99.90;;;;;;4588056;19;20259;-25
2022/06/05 03:09:35;;;;;;;;;;;16.80;99.90;;;;;;4589705;19;19923;-26
2022/06/05 03:11:07;;;;;;;;;;;16.70;99.90;;;;;;4590431;19;19935;-25
2022/06/05 03:12:38;;;;;;;;;;;16.70;99.90;;;;;;4590374;19;19946;-25
2022/06/05 03:14:09;;;;;;;;;;;16.80;99.90;;;;;;4590091;19;19911;-25
2022/06/05 03:15:41;;;;;;;;;;;16.80;99.90;;;;;;4591910;19;20390;-26
2022/06/05 03:17:12;;;;;;;;;;;16.70;99.90;;;;;;4592504;19;19956;-26
2022/06/05 03:18:43;;;;;;;;;;;16.70;99.90;;;;;;4592674;19;19919;-26
2022/06/05 03:20:14;;;;;;;;;;;16.80;99.90;;;;;;4592273;19;19915;-27
2022/06/05 03:21:45;;;;;;;;;;;16.80;99.90;;;;;;4591161;19;19919;-26
2022/06/05 03:23:16;;;;;;;;;;;16.70;99.90;;;;;;4590992;19;19982;-24
2022/06/05 03:24:47;;;;;;;;;;;16.70;99.90;;;;;;4591703;19;20337;-24
2022/06/05 03:26:18;;;;;;;;;;;16.80;99.90;;;;;;4591852;19;19911;-26
2022/06/05 03:27:49;;;;;;;;;;;16.70;99.90;;;;;;4592376;19;19911;-25
2022/06/05 03:29:21;;;;;;;;;;;16.70;99.90;;;;;;4590982;19;19919;-29
2022/06/05 03:30:51;;;;;;;;;;;16.80;99.90;;;;;;4592431;19;19919;-26
2022/06/05 03:32:23;;;;;;;;;;;16.80;99.90;;;;;;4591669;19;19921;-25
2022/06/05 03:33:54;;;;;;;;;;;16.70;99.90;;;;;;4591648;19;19934;-25
2022/06/05 03:35:25;;;;;;;;;;;16.70;99.90;;;;;;4591855;19;19918;-28
2022/06/05 03:36:57;;;;;;;;;;;16.80;99.90;;;;;;4591553;19;19915;-24
2022/06/05 03:38:27;;;;;;;;;;;16.80;99.90;;;;;;4590584;19;19986;-26
2022/06/05 03:39:58;;;;;;;;;;;16.80;99.90;;;;;;4591268;19;19919;-25
2022/06/05 03:41:29;;;;;;;;;;;16.80;99.90;;;;;;4592183;19;19943;-25
2022/06/05 03:43:00;;;;;;;;;;;16.80;99.90;;;;;;4591529;19;19961;-26
2022/06/05 03:44:34;;;;;;;;;;;16.80;99.90;;;;;;4591437;19;19911;-28
2022/06/05 03:46:06;;;;;;;;;;;16.80;99.90;;;;;;4590322;19;19953;-26
2022/06/05 03:47:37;;;;;;;;;;;16.80;99.90;;;;;;4591604;19;20285;-26
2022/06/05 03:49:08;;;;;;;;;;;16.80;99.90;;;;;;4590347;19;19919;-25
2022/06/05 03:50:39;;;;;;;;;;;16.80;99.90;;;;;;4591443;19;19915;-25
2022/06/05 03:52:10;;;;;;;;;;;16.80;99.90;;;;;;4592206;19;19918;-25
2022/06/05 03:53:42;;;;;;;;;;;16.80;99.90;;;;;;4591615;19;20267;-27
2022/06/05 03:55:14;;;;;;;;;;;16.80;99.90;;;;;;4592965;19;19918;-25
2022/06/05 03:56:46;;;;;;;;;;;16.80;99.90;;;;;;4593303;19;19922;-25
2022/06/05 03:58:17;;;;;;;;;;;16.80;99.90;;;;;;4592514;19;19915;-24
2022/06/05 03:59:48;;;;;;;;;;;16.80;99.90;;;;;;4591949;19;19987;-27
2022/06/05 04:01:20;;;;;;;;;;;16.80;99.90;;;;;;4592085;19;19911;-25
2022/06/05 04:02:51;;;;;;;;;;;16.90;99.90;;;;;;4593209;19;19928;-25
2022/06/05 04:04:23;;;;;;;;;;;16.90;99.90;;;;;;4593709;19;20254;-26
2022/06/05 04:05:54;;;;;;;;;;;16.90;99.90;;;;;;4592508;19;19942;-26
2022/06/05 04:07:25;;;;;;;;;;;16.90;99.90;;;;;;4591136;19;19923;-25
2022/06/05 04:08:56;;;;;;;;;;;16.90;99.90;;;;;;4592339;19;19922;-26
2022/06/05 04:10:27;;;;;;;;;;;16.90;99.90;;;;;;4593804;19;19926;-25
2022/06/05 04:11:58;;;;;;;;;;;16.90;99.90;;;;;;4592766;19;19915;-24
2022/06/05 04:13:29;;;;;;;;;;;16.90;99.90;;;;;;4591108;19;19932;-25
2022/06/05 04:15:00;;;;;;;;;;;16.90;99.90;;;;;;4588580;19;19935;-26
2022/06/05 04:16:31;;;;;;;;;;;16.90;99.90;;;;;;4590237;19;19915;-27
2022/06/05 04:18:02;;;;;;;;;;;16.90;99.90;;;;;;4590885;19;19919;-25
2022/06/05 04:19:33;;;;;;;;;;;16.90;99.90;;;;;;4590653;19;19922;-24
2022/06/05 04:21:05;;;;;;;;;;;16.90;99.90;;;;;;4591209;19;19919;-26
2022/06/05 04:22:37;;;;;;;;;;;16.90;99.90;;;;;;4590873;19;19943;-31
2022/06/05 04:24:08;;;;;;;;;;;16.80;99.90;;;;;;4590919;19;20326;-24
2022/06/05 04:25:43;;;;;;;;;;;16.90;99.90;;;;;;4591365;19;19911;-27
2022/06/05 04:27:13;;;;;;;;;;;16.90;99.90;;;;;;4591060;19;19928;-26
2022/06/05 04:28:45;;;;;;;;;;;16.90;99.90;;;;;;4589925;19;19926;-25
2022/06/05 04:30:16;;;;;;;;;;;16.90;99.90;;;;;;4591094;19;19967;-27
2022/06/05 04:31:47;;;;;;;;;;;16.90;99.90;;;;;;4591242;19;20341;-26
2022/06/05 04:33:18;;;;;;;;;;;16.90;99.90;;;;;;4591007;19;19931;-24
2022/06/05 04:34:52;;;;;;;;;;;16.80;99.90;;;;;;4590599;19;19923;-25
2022/06/05 04:36:23;;;;;;;;;;;16.90;99.90;;;;;;4590730;19;19974;-25
2022/06/05 04:37:54;;;;;;;;;;;16.90;99.90;;;;;;4591244;19;20257;-29
2022/06/05 04:39:25;;;;;;;;;;;17.00;99.90;;;;;;4590763;19;19919;-24
2022/06/05 04:40:57;;;;;;;;;;;17.00;99.90;;;;;;4590764;19;19928;-27
2022/06/05 04:42:30;;;;;;;;;;;16.90;99.90;;;;;;4589711;19;19919;-25
2022/06/05 04:44:01;;;;;;;;;;;17.00;99.90;;;;;;4590667;19;19939;-24
2022/06/05 04:45:32;;;;;;;;;;;17.00;99.90;;;;;;4590438;19;19914;-26
2022/06/05 04:47:03;;;;;;;;;;;17.00;99.90;;;;;;4590538;19;19921;-27
2022/06/05 04:48:34;;;;;;;;;;;17.00;99.90;;;;;;4589946;19;19918;-24
2022/06/05 04:50:05;;;;;;;;;;;17.00;99.90;;;;;;4591369;19;20313;-28
2022/06/05 04:51:36;;;;;;;;;;;17.00;99.90;;;;;;4590491;19;19994;-26
2022/06/05 04:53:07;;;;;;;;;;;17.00;99.90;;;;;;4589283;19;19919;-26
2022/06/05 04:54:38;;;;;;;;;;;17.00;99.90;;;;;;4590380;19;19944;-26
2022/06/05 04:56:10;;;;;;;;;;;17.00;99.90;;;;;;4590688;19;19915;-26
2022/06/05 04:57:43;;;;;;;;;;;17.00;99.90;;;;;;4590215;19;19915;-27
2022/06/05 04:59:14;;;;;;;;;;;17.00;99.90;;;;;;4590467;19;20325;-26
2022/06/05 05:00:46;;;;;;;;;;;17.00;99.90;;;;;;4589906;19;19919;-29
2022/06/05 05:02:17;;;;;;;;;;;17.00;99.90;;;;;;4590167;19;19915;-25
2022/06/05 05:03:50;;;;;;;;;;;17.00;99.90;;;;;;4590443;19;19915;-28
2022/06/05 05:05:21;;;;;;;;;;;17.00;99.90;;;;;;4590493;19;19926;-26
2022/06/05 05:06:52;;;;;;;;;;;17.00;99.90;;;;;;4590058;19;19923;-25
2022/06/05 05:08:26;;;;;;;;;;;17.00;99.90;;;;;;4589664;19;20334;-25
2022/06/05 05:09:57;;;;;;;;;;;17.00;99.90;;;;;;4587657;19;19975;-28
2022/06/05 05:11:28;;;;;;;;;;;17.00;99.90;;;;;;4589897;19;20264;-27
2022/06/05 05:12:59;;;;;;;;;;;17.00;99.90;;;;;;4592837;19;19931;-26
2022/06/05 05:14:31;;;;;;;;;;;16.90;99.90;;;;;;4591579;19;19919;-26
2022/06/05 05:16:03;;;;;;;;;;;16.90;99.90;;;;;;4588689;19;19915;-28
2022/06/05 05:17:34;;;;;;;;;;;16.90;99.90;;;;;;4590323;19;20290;-24
2022/06/05 05:19:06;;;;;;;;;;;16.90;99.90;;;;;;4588859;19;20262;-26
2022/06/05 05:20:37;;;;;;;;;;;16.90;99.90;;;;;;4588965;19;20378;-26
2022/06/05 05:22:08;;;;;;;;;;;17.00;99.90;;;;;;4589643;19;19915;-27
2022/06/05 05:23:39;;;;;;;;;;;17.00;99.90;;;;;;4589918;19;19938;-26
2022/06/05 05:25:10;;;;;;;;;;;17.00;99.90;;;;;;4589574;19;19983;-24
2022/06/05 05:26:41;;;;;;;;;;;17.00;99.90;;;;;;4589763;19;19931;-27
2022/06/05 05:28:12;;;;;;;;;;;17.00;99.90;;;;;;4589790;19;20260;-25
2022/06/05 05:29:43;;;;;;;;;;;17.00;99.90;;;;;;4590448;19;19922;-26
2022/06/05 05:31:17;;;;;;;;;;;17.00;99.90;;;;;;4590071;19;20290;-25
2022/06/05 05:32:47;;;;;;;;;;;17.00;99.90;;;;;;4594730;19;19923;-24
2022/06/05 05:34:18;;;;;;;;;;;17.10;99.90;;;;;;4595086;19;19915;-27
2022/06/05 05:35:49;;;;;;;;;;;17.00;99.90;;;;;;4594877;19;19922;-28
2022/06/05 05:37:20;;;;;;;;;;;17.10;99.90;;;;;;4594218;19;19915;-24
2022/06/05 05:42:31;;;;;;;;;;;17.00;99.90;;;;;;4595581;19;19927;-28
2022/06/05 05:44:02;;;;;;;;;;;17.10;99.90;;;;;;4594359;19;19915;-25
2022/06/05 05:45:32;;;;;;;;;;;17.00;99.90;;;;;;4594211;19;20002;-24
2022/06/05 05:47:04;;;;;;;;;;;17.10;99.90;;;;;;4594432;19;19918;-25
2022/06/05 05:48:37;;;;;;;;;;;17.10;99.90;;;;;;4593663;19;19971;-25
2022/06/05 05:50:11;;;;;;;;;;;17.10;99.90;;;;;;4593817;19;19915;-24
2022/06/05 05:51:42;;;;;;;;;;;17.00;99.90;;;;;;4594247;19;19922;-28
2022/06/05 05:53:12;;;;;;;;;;;17.00;99.90;;;;;;4594024;19;19919;-25
2022/06/05 05:54:44;;;;;;;;;;;17.00;99.90;;;;;;4594134;19;20336;-24
2022/06/05 05:56:14;;;;;;;;;;;17.00;99.90;;;;;;4593578;19;19919;-25
2022/06/05 05:57:46;;;;;;;;;;;17.00;99.90;;;;;;4593572;19;19915;-25
2022/06/05 05:59:17;;;;;;;;;;;17.10;99.90;;;;;;4594425;19;19918;-26
2022/06/05 06:00:49;;;;;;;;;;;17.00;99.90;;;;;;4593043;19;20317;-25
2022/06/05 06:02:21;;;;;;;;;;;17.10;99.90;;;;;;4592551;19;19915;-23
2022/06/05 06:03:52;;;;;;;;;;;17.10;99.90;;;;;;4594807;19;20249;-24
2022/06/05 06:05:23;;;;;;;;;;;17.10;99.90;;;;;;4592794;19;19918;-23
2022/06/05 06:06:54;;;;;;;;;;;17.10;99.90;;;;;;4591979;19;20331;-25
2022/06/05 06:08:26;;;;;;;;;;;17.10;99.90;;;;;;4592499;19;19935;-23
2022/06/05 06:09:56;;;;;;;;;;;17.20;99.90;;;;;;4594115;19;19966;-24
2022/06/05 06:11:27;;;;;;;;;;;17.10;99.90;;;;;;4594107;19;19929;-28
2022/06/05 06:12:59;;;;;;;;;;;17.20;99.90;;;;;;4594108;19;19938;-25
2022/06/05 06:14:30;;;;;;;;;;;17.20;99.90;;;;;;4590766;19;20329;-27
2022/06/05 06:16:00;;;;;;;;;;;17.20;99.90;;;;;;4592893;19;19943;-25
2022/06/05 06:17:31;;;;;;;;;;;17.30;99.90;;;;;;4593632;19;19919;-24
2022/06/05 06:19:03;;;;;;;;;;;17.30;99.90;;;;;;4593313;19;19926;-29
2022/06/05 06:20:34;;;;;;;;;;;17.30;99.90;;;;;;4593718;19;19914;-27
2022/06/05 06:22:04;;;;;;;;;;;17.30;99.90;;;;;;4593057;19;19932;-26
2022/06/05 06:23:35;;;;;;;;;;;17.30;99.90;;;;;;4594072;19;19914;-29
2022/06/05 06:25:07;;;;;;;;;;;17.30;99.90;;;;;;4594983;19;19985;-26
2022/06/05 06:26:38;;;;;;;;;;;17.30;99.90;;;;;;4595381;19;19919;-25
2022/06/05 06:28:10;;;;;;;;;;;17.20;99.90;;;;;;4593924;19;19911;-26
2022/06/05 06:29:41;;;;;;;;;;;17.20;99.90;;;;;;4593448;19;19915;-28
2022/06/05 06:31:13;;;;;;;;;;;17.20;99.90;;;;;;4594826;19;19922;-26
2022/06/05 06:32:44;;;;;;;;;;;17.20;99.90;;;;;;4593307;19;19919;-26
2022/06/05 06:34:15;;;;;;;;;;;17.20;99.90;;;;;;4592398;19;19914;-25
2022/06/05 06:35:46;;;;;;;;;;;17.20;99.90;;;;;;4591826;19;20275;-27
2022/06/05 06:37:20;;;;;;;;;;;17.20;99.90;;;;;;4593183;19;19915;-27
2022/06/05 06:38:51;;;;;;;;;;;17.20;99.90;;;;;;4592658;19;19918;-29
2022/06/05 06:40:22;;;;;;;;;;;17.30;99.90;;;;;;4593008;19;19915;-25
2022/06/05 06:41:52;;;;;;;;;;;17.30;99.90;;;;;;4594628;19;19910;-27
2022/06/05 06:43:24;;;;;;;;;;;17.40;99.90;;;;;;4592827;19;19922;-23
2022/06/05 06:44:55;;;;;;;;;;;17.40;99.90;;;;;;4592664;19;19966;-27
2022/06/05 06:46:26;;;;;;;;;;;17.50;99.90;;;;;;4592350;19;19927;-26
2022/06/05 06:47:57;;;;;;;;;;;17.50;99.90;;;;;;4592806;19;19918;-27
2022/06/05 06:49:28;;;;;;;;;;;17.50;99.90;;;;;;4591393;19;19948;-24
2022/06/05 06:50:59;;;;;;;;;;;17.50;99.90;;;;;;4590516;19;19983;-26
2022/06/05 06:52:30;;;;;;;;;;;17.50;99.90;;;;;;4592252;19;20019;-27
2022/06/05 06:54:01;;;;;;;;;;;17.60;99.90;;;;;;4593404;19;19918;-31
2022/06/05 06:55:32;;;;;;;;;;;17.60;99.90;;;;;;4591893;19;19923;-25
2022/06/05 06:57:03;;;;;;;;;;;17.70;99.90;;;;;;4591101;19;20577;-27
2022/06/05 06:58:34;;;;;;;;;;;17.60;99.90;;;;;;4590880;19;19922;-22
2022/06/05 07:00:06;;;;;;;;;;;17.60;99.90;;;;;;4592043;19;19935;-24
2022/06/05 07:01:37;;;;;;;;;;;17.60;99.90;;;;;;4590820;19;19922;-27
2022/06/05 07:03:08;;;;;;;;;;;17.50;99.90;;;;;;4589437;19;19922;-27
2022/06/05 07:04:39;;;;;;;;;;;17.60;99.90;;;;;;4590825;19;19974;-25
2022/06/05 07:06:11;;;;;;;;;;;17.60;99.90;;;;;;4591035;19;19919;-28
2022/06/05 07:07:42;;;;;;;;;;;17.70;99.90;;;;;;4590608;19;19990;-26
2022/06/05 07:09:14;;;;;;;;;;;17.70;99.90;;;;;;4590089;19;19932;-25
2022/06/05 07:10:45;;;;;;;;;;;17.70;99.90;;;;;;4591393;19;19914;-29
2022/06/05 07:12:17;;;;;;;;;;;17.80;99.90;;;;;;4592788;19;20271;-25
2022/06/05 07:13:49;;;;;;;;;;;17.70;99.90;;;;;;4591245;19;19974;-25
2022/06/05 07:15:20;;;;;;;;;;;17.70;99.90;;;;;;4592438;19;19934;-27
2022/06/05 07:16:51;;;;;;;;;;;17.70;99.90;;;;;;4591957;19;19923;-25
2022/06/05 07:18:22;;;;;;;;;;;17.70;99.90;;;;;;4592164;19;19915;-24
2022/06/05 07:19:53;;;;;;;;;;;17.80;99.90;;;;;;4592246;19;20325;-27
2022/06/05 07:21:24;;;;;;;;;;;17.70;99.90;;;;;;4592042;19;19934;-26
2022/06/05 07:22:55;;;;;;;;;;;17.80;99.90;;;;;;4592312;19;20263;-24
2022/06/05 07:24:26;;;;;;;;;;;17.90;99.90;;;;;;4591332;19;19915;-24
2022/06/05 07:25:57;;;;;;;;;;;17.20;99.90;;;;;;4590973;19;20235;-23
2022/06/05 07:27:28;;;;;;;;;;;15.80;99.90;;;;;;4591857;19;19921;-25
2022/06/05 07:28:59;;;;;;;;;;;15.50;99.90;;;;;;4591164;19;19926;-24
2022/06/05 07:30:31;;;;;;;;;;;15.40;99.90;;;;;;4590462;19;20230;-27
2022/06/05 07:32:02;;;;;;;;;;;15.40;99.90;;;;;;4591796;19;19919;-26
2022/06/05 07:33:33;;;;;;;;;;;15.40;99.90;;;;;;4591679;19;19918;-24
2022/06/05 07:35:04;;;;;;;;;;;15.40;99.90;;;;;;4590716;19;19919;-26
2022/06/05 07:36:35;;;;;;;;;;;15.40;99.90;;;;;;4591396;19;20337;-29
2022/06/05 07:38:06;;;;;;;;;;;15.50;99.90;;;;;;4591967;19;19914;-27
2022/06/05 07:39:37;;;;;;;;;;;15.50;99.90;;;;;;4593093;19;20274;-25
2022/06/05 07:41:36;;;;;;;;;;;15.60;99.90;;;;;;4594019;19;19914;-26
2022/06/05 07:43:09;;;;;;;;;;;15.70;99.90;;;;;;4591329;19;20325;-25
2022/06/05 07:44:40;;;;;;;;;;;15.70;99.90;;;;;;4591376;19;19914;-26
2022/06/05 07:46:12;;;;;;;;;;;15.80;99.90;;;;;;4591881;19;19934;-26
2022/06/05 07:47:44;;;;;;;;;;;15.80;99.90;;;;;;4591495;19;19915;-24
2022/06/05 07:49:16;;;;;;;;;;;15.90;99.90;;;;;;4590925;19;19919;-25
2022/06/05 07:54:27;;;;;;;;;;;16.00;99.90;;;;;;4591331;19;19919;-27
2022/06/05 07:55:57;;;;;;;;;;;16.10;99.90;;;;;;4591654;19;20269;-27
2022/06/05 07:57:28;;;;;;;;;;;16.10;99.90;;;;;;4593540;19;19935;-29
2022/06/05 07:58:59;;;;;;;;;;;16.10;99.90;;;;;;4592993;19;20262;-28
2022/06/05 08:00:31;;;;;;;;;;;16.10;99.90;;;;;;4593149;19;19988;-26
2022/06/05 08:02:04;;;;;;;;;;;16.10;99.90;;;;;;4593046;19;20243;-30
2022/06/05 08:03:35;;;;;;;;;;;16.00;99.90;;;;;;4592088;19;19922;-29
2022/06/05 08:05:06;;;;;;;;;;;16.10;99.90;;;;;;4593031;19;19933;-24
2022/06/05 08:06:37;;;;;;;;;;;16.20;99.90;;;;;;4591504;19;19919;-27
2022/06/05 08:08:08;;;;;;;;;;;16.20;99.90;;;;;;4593033;19;19925;-24
2022/06/05 08:09:39;;;;;;;;;;;16.20;99.90;;;;;;4589699;19;20261;-23
2022/06/05 08:11:10;;;;;;;;;;;16.20;99.90;;;;;;4590755;19;19923;-27
2022/06/05 08:12:42;;;;;;;;;;;16.20;99.90;;;;;;4588151;19;20218;-29
2022/06/05 08:14:14;;;;;;;;;;;16.30;99.90;;;;;;4588937;19;20260;-26
2022/06/05 08:15:45;;;;;;;;;;;16.30;99.90;;;;;;4590097;19;20357;-27
2022/06/05 08:17:18;;;;;;;;;;;16.30;99.90;;;;;;4589465;19;19923;-26
2022/06/05 08:18:51;;;;;;;;;;;16.30;99.90;;;;;;4589607;19;19911;-26
2022/06/05 08:20:22;;;;;;;;;;;16.30;99.90;;;;;;4589229;19;19911;-26
2022/06/05 08:21:54;;;;;;;;;;;16.30;99.90;;;;;;4588634;19;19922;-25
2022/06/05 08:23:25;;;;;;;;;;;16.30;99.90;;;;;;4588987;19;20380;-28
2022/06/05 08:24:56;;;;;;;;;;;16.30;99.90;;;;;;4591225;19;19932;-26
2022/06/05 08:26:27;;;;;;;;;;;16.40;99.90;;;;;;4589805;19;19923;-27
2022/06/05 08:27:58;;;;;;;;;;;16.40;99.90;;;;;;4590500;19;20368;-25
2022/06/05 08:29:28;;;;;;;;;;;16.40;99.90;;;;;;4586124;19;19907;-25
2022/06/05 08:31:00;;;;;;;;;;;16.30;99.90;;;;;;4587687;19;19927;-25
2022/06/05 08:32:31;;;;;;;;;;;16.30;99.90;;;;;;4590641;19;20337;-24
2022/06/05 08:34:02;;;;;;;;;;;16.30;99.90;;;;;;4589369;19;19926;-25
2022/06/05 08:35:33;;;;;;;;;;;16.40;99.90;;;;;;4589032;19;19914;-27
2022/06/05 08:42:46;;;;;;;;;;;16.50;99.90;;;;;;4587347;19;20384;-26
2022/06/05 08:44:23;;;;;;;;;;;16.50;99.90;;;;;;4588471;19;20398;-24
2022/06/05 08:45:54;;;;;;;;;;;16.50;99.90;;;;;;4588606;19;19919;-26
2022/06/05 08:47:26;;;;;;;;;;;16.60;99.90;;;;;;4589184;19;20693;-25
2022/06/05 08:49:00;;;;;;;;;;;16.60;99.90;;;;;;4587680;19;19925;-25
2022/06/05 08:50:31;;;;;;;;;;;16.60;99.90;;;;;;4586988;19;19918;-24
2022/06/05 08:52:02;;;;;;;;;;;16.60;99.90;;;;;;4588211;19;19923;-25
2022/06/05 08:53:33;;;;;;;;;;;16.60;99.90;;;;;;4590573;19;19914;-24
2022/06/05 08:55:05;;;;;;;;;;;16.70;99.90;;;;;;4590614;19;19939;-27
2022/06/05 08:56:46;;;;;;;;;;;16.70;99.90;;;;;;4588905;19;20389;-25
2022/06/05 08:58:28;;;;;;;;;;;16.70;99.90;;;;;;4589825;19;20237;-26
2022/06/05 09:00:11;;;;;;;;;;;16.70;99.90;;;;;;4588844;19;19915;-24
2022/06/05 09:01:47;;;;;;;;;;;16.90;99.90;;;;;;4588265;19;19918;-31
2022/06/05 09:03:24;;;;;;;;;;;16.90;99.90;;;;;;4588960;19;19918;-25
2022/06/05 09:05:06;;;;;;;;;;;16.90;99.90;;;;;;4589650;19;19914;-25
2022/06/05 09:06:41;;;;;;;;;;;16.90;99.90;;;;;;4590526;19;19935;-26
2022/06/05 09:08:13;;;;;;;;;;;16.90;99.90;;;;;;4593896;19;19930;-25
2022/06/05 09:09:46;;;;;;;;;;;16.90;99.90;;;;;;4593855;19;19936;-25
2022/06/05 09:11:33;;;;;;;;;;;16.90;99.90;;;;;;4592277;19;19932;-27
2022/06/05 09:13:05;;;;;;;;;;;16.90;99.90;;;;;;4592581;19;20002;-27
2022/06/05 09:14:56;;;;;;;;;;;16.90;99.90;;;;;;4594549;19;19918;-27
2022/06/05 09:16:28;;;;;;;;;;;16.90;99.90;;;;;;4594371;19;19952;-27